createdAt,value
2023-05-15T00:00:22.942Z,100495.66
2023-05-15T00:02:51.320Z,100492.28
2023-05-15T00:05:19.793Z,100493.88
2023-05-15T00:07:48.089Z,100486.13
2023-05-15T00:10:16.286Z,100488.72
2023-05-15T00:12:45.886Z,100491.00
2023-05-15T00:15:14.278Z,100480.63
2023-05-15T00:17:42.672Z,100481.28
2023-05-15T00:20:11.438Z,100476.25
2023-05-15T00:22:39.700Z,100474.47
2023-05-15T00:25:08.412Z,100480.09
2023-05-15T00:27:36.875Z,100469.13
2023-05-15T00:30:07.294Z,100480.59
2023-05-15T00:32:36.024Z,100472.03
2023-05-15T00:35:05.905Z,100470.22
2023-05-15T00:37:34.105Z,100469.75
2023-05-15T00:40:02.440Z,100462.94
2023-05-15T00:42:31.600Z,100472.50
2023-05-15T00:45:01.823Z,100463.59
2023-05-15T00:47:31.727Z,100461.31
2023-05-15T00:50:00.273Z,100461.63
2023-05-15T00:52:29.362Z,100453.53
2023-05-15T00:54:57.830Z,100449.47
2023-05-15T00:57:27.402Z,100446.88
2023-05-15T00:59:57.732Z,100447.03
2023-05-15T01:02:26.759Z,100452.00
2023-05-15T01:04:56.452Z,100448.13
2023-05-15T01:07:24.643Z,100455.88
2023-05-15T01:09:54.325Z,100448.75
2023-05-15T01:12:25.210Z,100454.84
2023-05-15T01:14:53.473Z,100453.84
2023-05-15T01:17:21.670Z,100458.91
2023-05-15T01:19:52.280Z,100454.03
2023-05-15T01:22:34.858Z,100449.81
2023-05-15T01:25:17.717Z,100450.06
2023-05-15T01:27:49.910Z,100452.78
2023-05-15T01:30:19.896Z,100452.44
2023-05-15T01:32:50.967Z,100461.09
2023-05-15T01:35:22.524Z,100449.31
2023-05-15T01:37:54.163Z,100451.44
2023-05-15T01:40:23.692Z,100448.19
2023-05-15T01:42:55.451Z,100447.50
2023-05-15T01:45:25.529Z,100444.47
2023-05-15T01:47:54.836Z,100440.09
2023-05-15T01:50:23.179Z,100448.47
2023-05-15T01:52:53.174Z,100445.38
2023-05-15T01:55:23.535Z,100449.03
2023-05-15T01:57:52.544Z,100455.28
2023-05-15T02:00:23.063Z,100448.78
2023-05-15T02:02:51.472Z,100452.22
2023-05-15T02:05:20.266Z,100448.44
2023-05-15T02:07:49.420Z,100443.56
2023-05-15T02:10:19.371Z,100442.97
2023-05-15T02:12:48.017Z,100447.44
2023-05-15T02:15:17.998Z,100455.59
2023-05-15T02:17:47.804Z,100459.13
2023-05-15T02:20:18.074Z,100457.91
2023-05-15T02:22:46.410Z,100451.22
2023-05-15T02:25:14.653Z,100450.38
2023-05-15T02:27:47.361Z,100449.06
2023-05-15T02:30:21.314Z,100450.59
2023-05-15T02:32:55.457Z,100447.97
2023-05-15T02:35:28.083Z,100436.63
2023-05-15T02:37:57.678Z,100454.00
2023-05-15T02:40:26.997Z,100456.72
2023-05-15T02:42:55.915Z,100469.69
2023-05-15T02:45:25.283Z,100466.25
2023-05-15T02:47:55.317Z,100458.09
2023-05-15T02:50:23.767Z,100452.72
2023-05-15T02:52:52.094Z,100459.06
2023-05-15T02:55:20.599Z,100463.31
2023-05-15T02:57:48.898Z,100472.91
2023-05-15T03:00:17.535Z,100467.91
2023-05-15T03:02:45.838Z,100451.81
2023-05-15T03:05:15.446Z,100468.44
2023-05-15T03:07:43.643Z,100474.13
2023-05-15T03:10:23.851Z,100452.00
2023-05-15T03:12:52.167Z,100456.75
2023-05-15T03:15:21.156Z,100453.72
2023-05-15T03:17:49.467Z,100446.97
2023-05-15T03:20:19.080Z,100458.44
2023-05-15T03:22:47.376Z,100455.22
2023-05-15T03:25:17.118Z,100442.59
2023-05-15T03:27:45.360Z,100449.72
2023-05-15T03:30:13.667Z,100448.78
2023-05-15T03:32:42.055Z,100440.03
2023-05-15T03:35:10.883Z,100450.03
2023-05-15T03:37:40.623Z,100443.28
2023-05-15T03:40:09.475Z,100450.22
2023-05-15T03:42:39.435Z,100450.03
2023-05-15T03:45:10.251Z,100455.06
2023-05-15T03:47:38.446Z,100462.38
2023-05-15T03:50:07.367Z,100465.78
2023-05-15T03:52:35.838Z,100467.72
2023-05-15T03:55:05.996Z,100455.38
2023-05-15T03:57:35.577Z,100463.44
2023-05-15T04:00:04.020Z,100469.13
2023-05-15T04:02:32.428Z,100474.28
2023-05-15T04:05:00.793Z,100472.84
2023-05-15T04:07:29.236Z,100463.00
2023-05-15T04:10:01.380Z,100458.13
2023-05-15T04:12:31.517Z,100464.91
2023-05-15T04:15:00.577Z,100455.47
2023-05-15T04:17:28.803Z,100460.66
2023-05-15T04:19:57.050Z,100459.84
2023-05-15T04:22:25.558Z,100462.28
2023-05-15T04:24:53.863Z,100460.16
2023-05-15T04:27:22.443Z,100461.47
2023-05-15T04:29:52.075Z,100462.59
2023-05-15T04:32:20.310Z,100460.34
2023-05-15T04:34:57.727Z,100462.59
2023-05-15T04:37:26.073Z,100453.69
2023-05-15T04:39:54.313Z,100459.84
2023-05-15T04:42:22.556Z,100460.69
2023-05-15T04:44:52.084Z,100451.81
2023-05-15T04:47:21.807Z,100460.38
2023-05-15T04:49:50.119Z,100464.28
2023-05-15T04:52:18.521Z,100454.41
2023-05-15T04:54:47.956Z,100466.50
2023-05-15T04:57:16.505Z,100470.09
2023-05-15T04:59:44.745Z,100460.91
2023-05-15T05:02:14.238Z,100467.50
2023-05-15T05:04:43.516Z,100467.69
2023-05-15T05:07:11.746Z,100465.59
2023-05-15T05:09:40.089Z,100468.00
2023-05-15T05:12:09.136Z,100476.41
2023-05-15T05:14:37.446Z,100461.69
2023-05-15T05:17:05.898Z,100470.25
2023-05-15T05:19:35.690Z,100466.06
2023-05-15T05:22:05.231Z,100466.88
2023-05-15T05:24:35.337Z,100475.59
2023-05-15T05:27:03.837Z,100468.44
2023-05-15T05:29:32.160Z,100474.50
2023-05-15T05:32:01.214Z,100471.94
2023-05-15T05:34:29.653Z,100465.47
2023-05-15T05:36:59.302Z,100470.94
2023-05-15T05:39:27.682Z,100464.97
2023-05-15T05:41:55.996Z,100464.38
2023-05-15T05:44:24.437Z,100471.59
2023-05-15T05:46:53.462Z,100477.28
2023-05-15T05:49:21.889Z,100482.44
2023-05-15T05:51:51.418Z,100481.78
2023-05-15T05:54:21.483Z,100479.72
2023-05-15T05:56:49.965Z,100472.44
2023-05-15T05:59:18.220Z,100476.38
2023-05-15T06:01:46.726Z,100483.97
2023-05-15T06:04:17.607Z,100483.34
2023-05-15T06:06:46.582Z,100485.09
2023-05-15T06:09:14.864Z,100480.25
2023-05-15T06:11:45.664Z,100490.59
2023-05-15T06:14:14.255Z,100484.50
2023-05-15T06:16:42.561Z,100491.44
2023-05-15T06:19:10.924Z,100486.28
2023-05-15T06:21:39.323Z,100484.63
2023-05-15T06:24:07.728Z,100485.16
2023-05-15T06:26:36.148Z,100480.28
2023-05-15T06:29:05.994Z,100475.13
2023-05-15T06:31:34.379Z,100485.97
2023-05-15T06:34:02.895Z,100487.44
2023-05-15T06:36:31.246Z,100483.22
2023-05-15T06:38:59.575Z,100479.13
2023-05-15T06:41:27.816Z,100489.97
2023-05-15T06:43:56.118Z,100480.72
2023-05-15T06:46:26.072Z,100485.28
2023-05-15T06:48:54.590Z,100482.50
2023-05-15T06:51:23.014Z,100488.34
2023-05-15T06:53:51.322Z,100483.16
2023-05-15T06:56:19.586Z,100491.22
2023-05-15T06:58:51.134Z,100500.22
2023-05-15T07:01:19.409Z,100508.63
2023-05-15T07:03:48.996Z,100512.41
2023-05-15T07:06:17.596Z,100510.50
2023-05-15T07:08:45.815Z,100516.59
2023-05-15T07:11:16.721Z,100509.63
2023-05-15T07:13:45.246Z,100518.53
2023-05-15T07:16:13.768Z,100523.56
2023-05-15T07:18:42.791Z,100523.94
2023-05-15T07:21:12.834Z,100523.81
2023-05-15T07:23:41.145Z,100516.38
2023-05-15T07:26:14.121Z,100517.00
2023-05-15T07:28:45.496Z,100508.41
2023-05-15T07:31:13.927Z,100515.69
2023-05-15T07:33:42.206Z,100509.63
2023-05-15T07:36:11.858Z,100514.59
2023-05-15T07:38:40.336Z,100509.03
2023-05-15T07:41:08.862Z,100511.41
2023-05-15T07:43:39.268Z,100511.72
2023-05-15T07:46:07.648Z,100520.69
2023-05-15T07:48:35.986Z,100516.28
2023-05-15T07:51:04.326Z,100505.78
2023-05-15T07:53:34.172Z,100510.28
2023-05-15T07:56:02.549Z,100508.06
2023-05-15T07:58:30.822Z,100499.09
2023-05-15T08:00:59.218Z,100501.28
2023-05-15T08:03:30.665Z,100492.53
2023-05-15T08:05:59.695Z,100501.31
2023-05-15T08:08:27.935Z,100494.53
2023-05-15T08:10:57.966Z,100489.44
2023-05-15T08:13:26.247Z,100485.13
2023-05-15T08:15:54.589Z,100491.06
2023-05-15T08:18:23.325Z,100488.31
2023-05-15T08:20:52.198Z,100478.75
2023-05-15T08:23:20.473Z,100477.50
2023-05-15T08:25:48.952Z,100485.84
2023-05-15T08:28:19.296Z,100485.31
2023-05-15T08:30:48.209Z,100478.97
2023-05-15T08:33:16.507Z,100484.94
2023-05-15T08:35:46.313Z,100472.75
2023-05-15T08:38:15.802Z,100473.72
2023-05-15T08:40:47.617Z,100481.53
2023-05-15T08:43:17.401Z,100473.25
2023-05-15T08:45:50.193Z,100466.09
2023-05-15T08:48:23.169Z,100474.00
2023-05-15T08:50:52.716Z,100468.03
2023-05-15T08:53:21.785Z,100464.69
2023-05-15T08:55:50.776Z,100463.72
2023-05-15T08:58:21.491Z,100463.47
2023-05-15T09:00:51.286Z,100467.00
2023-05-15T09:03:26.141Z,100460.69
2023-05-15T09:06:06.222Z,100466.72
2023-05-15T09:08:35.430Z,100469.91
2023-05-15T09:11:04.615Z,100466.34
2023-05-15T09:13:33.005Z,100461.53
2023-05-15T09:16:05.758Z,100456.69
2023-05-15T09:18:35.640Z,100461.44
2023-05-15T09:21:26.191Z,100461.84
2023-05-15T09:24:16.777Z,100463.25
2023-05-15T09:26:45.884Z,100458.19
2023-05-15T09:29:19.336Z,100463.38
2023-05-15T09:31:49.541Z,100458.06
2023-05-15T09:34:18.102Z,100463.13
2023-05-15T09:36:49.112Z,100462.34
2023-05-15T09:39:23.232Z,100464.75
2023-05-15T09:41:51.702Z,100467.44
2023-05-15T09:44:21.941Z,100464.00
2023-05-15T09:46:52.197Z,100467.53
2023-05-15T09:49:20.989Z,100469.56
2023-05-15T09:51:50.421Z,100462.19
2023-05-15T09:54:19.841Z,100461.41
2023-05-15T09:56:48.738Z,100456.19
2023-05-15T09:59:17.619Z,100448.34
2023-05-15T10:01:46.528Z,100459.13
2023-05-15T10:04:16.227Z,100457.09
2023-05-15T10:06:47.762Z,100440.19
2023-05-15T10:09:39.158Z,100450.22
2023-05-15T10:12:09.379Z,100459.69
2023-05-15T10:14:37.756Z,100450.28
2023-05-15T10:17:06.107Z,100445.38
2023-05-15T10:19:47.080Z,100439.94
2023-05-15T10:22:28.024Z,100446.50
2023-05-15T10:25:01.595Z,100445.84
2023-05-15T10:27:31.251Z,100436.91
2023-05-15T10:30:00.028Z,100446.03
2023-05-15T10:32:28.801Z,100439.03
2023-05-15T10:34:58.681Z,100439.31
2023-05-15T10:37:28.743Z,100437.78
2023-05-15T10:39:58.583Z,100431.25
2023-05-15T10:42:27.413Z,100432.84
2023-05-15T10:45:00.021Z,100428.22
2023-05-15T10:47:29.171Z,100422.13
2023-05-15T10:49:59.116Z,100422.75
2023-05-15T10:52:27.368Z,100419.69
2023-05-15T10:54:56.852Z,100419.25
2023-05-15T10:57:25.345Z,100413.56
2023-05-15T10:59:53.986Z,100418.09
2023-05-15T11:02:23.820Z,100412.94
2023-05-15T11:04:56.146Z,100420.81
2023-05-15T11:07:26.102Z,100413.25
2023-05-15T11:09:54.714Z,100417.41
2023-05-15T11:12:25.566Z,100407.97
2023-05-15T11:15:12.993Z,100396.69
2023-05-15T11:18:01.745Z,100401.75
2023-05-15T11:20:37.909Z,100393.78
2023-05-15T11:23:08.211Z,100389.75
2023-05-15T11:25:37.272Z,100390.75
2023-05-15T11:28:07.794Z,100393.09
2023-05-15T11:30:37.311Z,100397.13
2023-05-15T11:33:08.686Z,100381.13
2023-05-15T11:35:38.834Z,100384.16
2023-05-15T11:38:13.843Z,100396.56
2023-05-15T11:40:46.493Z,100375.81
2023-05-15T11:43:19.153Z,100374.53
2023-05-15T11:45:49.048Z,100378.88
2023-05-15T11:48:18.488Z,100374.03
2023-05-15T11:50:47.373Z,100379.81
2023-05-15T11:53:17.502Z,100366.88
2023-05-15T11:55:46.202Z,100365.19
2023-05-15T11:58:15.657Z,100369.97
2023-05-15T12:00:45.653Z,100355.81
2023-05-15T12:03:16.019Z,100363.63
2023-05-15T12:05:57.578Z,100358.66
2023-05-15T12:08:32.104Z,100359.91
2023-05-15T12:11:01.168Z,100355.22
2023-05-15T12:13:30.407Z,100355.44
2023-05-15T12:15:59.115Z,100353.84
2023-05-15T12:18:27.725Z,100355.16
2023-05-15T12:20:56.332Z,100350.63
2023-05-15T12:23:26.844Z,100357.69
2023-05-15T12:25:59.057Z,100339.53
2023-05-15T12:28:27.930Z,100348.81
2023-05-15T12:30:56.596Z,100347.13
2023-05-15T12:33:25.813Z,100336.28
2023-05-15T12:35:58.030Z,100347.28
2023-05-15T12:38:28.837Z,100349.00
2023-05-15T12:40:58.574Z,100346.88
2023-05-15T12:43:27.344Z,100341.25
2023-05-15T12:45:56.282Z,100339.53
2023-05-15T12:48:25.084Z,100331.88
2023-05-15T12:50:53.665Z,100348.16
2023-05-15T12:53:22.372Z,100341.50
2023-05-15T12:55:51.874Z,100345.97
2023-05-15T12:58:22.043Z,100339.22
2023-05-15T13:00:52.926Z,100340.75
2023-05-15T13:03:22.890Z,100348.19
2023-05-15T13:05:52.751Z,100344.94
2023-05-15T13:08:21.272Z,100352.34
2023-05-15T13:10:56.673Z,100347.38
2023-05-15T13:13:39.741Z,100352.38
2023-05-15T13:16:18.615Z,100338.84
2023-05-15T13:18:47.094Z,100345.84
2023-05-15T13:21:15.429Z,100347.78
2023-05-15T13:23:43.759Z,100349.81
2023-05-15T13:26:12.096Z,100333.63
2023-05-15T13:28:41.755Z,100335.38
2023-05-15T13:31:10.306Z,100334.56
2023-05-15T13:33:39.284Z,100330.19
2023-05-15T13:36:23.305Z,100331.19
2023-05-15T13:38:51.917Z,100333.69
2023-05-15T13:41:21.108Z,100336.97
2023-05-15T13:43:51.507Z,100336.63
2023-05-15T13:46:19.964Z,100327.22
2023-05-15T13:48:48.359Z,100323.59
2023-05-15T13:51:16.723Z,100321.91
2023-05-15T13:53:45.087Z,100322.88
2023-05-15T13:56:13.474Z,100323.00
2023-05-15T13:58:42.501Z,100328.06
2023-05-15T14:01:12.310Z,100315.91
2023-05-15T14:03:40.867Z,100318.16
2023-05-15T14:06:09.473Z,100318.25
2023-05-15T14:08:37.780Z,100316.75
2023-05-15T14:11:06.883Z,100315.38
2023-05-15T14:13:35.618Z,100319.22
2023-05-15T14:16:04.117Z,100324.28
2023-05-15T14:18:34.029Z,100321.41
2023-05-15T14:21:02.414Z,100332.47
2023-05-15T14:23:30.761Z,100336.09
2023-05-15T14:25:59.301Z,100344.94
2023-05-15T14:28:27.912Z,100348.06
2023-05-15T14:30:56.149Z,100349.63
2023-05-15T14:33:24.399Z,100361.09
2023-05-15T14:35:54.032Z,100368.22
2023-05-15T14:38:22.433Z,100376.78
2023-05-15T14:40:50.719Z,100366.63
2023-05-15T14:43:19.082Z,100369.91
2023-05-15T14:45:47.371Z,100367.44
2023-05-15T14:48:15.721Z,100366.13
2023-05-15T14:50:44.589Z,100363.19
2023-05-15T14:53:14.290Z,100353.59
2023-05-15T14:55:42.516Z,100359.56
2023-05-15T14:58:11.375Z,100358.59
2023-05-15T15:00:39.633Z,100349.91
2023-05-15T15:03:08.328Z,100367.56
2023-05-15T15:05:36.676Z,100365.09
2023-05-15T15:08:05.856Z,100364.03
2023-05-15T15:10:36.079Z,100365.03
2023-05-15T15:13:04.491Z,100364.44
2023-05-15T15:15:33.665Z,100365.38
2023-05-15T15:18:02.147Z,100373.38
2023-05-15T15:20:30.696Z,100367.81
2023-05-15T15:22:59.275Z,100371.56
2023-05-15T15:25:28.013Z,100363.84
2023-05-15T15:27:58.517Z,100359.59
2023-05-15T15:30:26.985Z,100354.03
2023-05-15T15:32:55.864Z,100366.53
2023-05-15T15:35:24.700Z,100364.47
2023-05-15T15:37:53.059Z,100365.22
2023-05-15T15:40:23.500Z,100368.25
2023-05-15T15:42:52.226Z,100369.88
2023-05-15T15:45:21.880Z,100361.72
2023-05-15T15:47:50.152Z,100363.19
2023-05-15T15:50:18.582Z,100368.19
2023-05-15T15:52:46.799Z,100362.25
2023-05-15T15:55:15.231Z,100373.13
2023-05-15T15:57:43.901Z,100375.50
2023-05-15T16:00:12.994Z,100360.22
2023-05-15T16:02:42.723Z,100373.94
2023-05-15T16:05:53.320Z,100376.84
2023-05-15T16:08:21.616Z,100373.50
2023-05-15T16:10:49.842Z,100375.91
2023-05-15T16:13:18.193Z,100376.94
2023-05-15T16:15:46.510Z,100381.75
2023-05-15T16:18:16.613Z,100381.59
2023-05-15T16:20:45.255Z,100375.38
2023-05-15T16:23:15.304Z,100377.97
2023-05-15T16:25:43.879Z,100391.94
2023-05-15T16:28:12.195Z,100379.94
2023-05-15T16:30:48.941Z,100392.13
2023-05-15T16:33:19.728Z,100389.09
2023-05-15T16:35:48.489Z,100383.25
2023-05-15T16:38:18.064Z,100384.53
2023-05-15T16:40:46.380Z,100382.59
2023-05-15T16:43:14.677Z,100379.41
2023-05-15T16:45:44.432Z,100391.38
2023-05-15T16:48:12.822Z,100393.44
2023-05-15T16:50:42.742Z,100386.28
2023-05-15T16:53:11.040Z,100383.94
2023-05-15T16:55:39.299Z,100398.06
2023-05-15T16:58:07.924Z,100404.56
2023-05-15T17:00:36.222Z,100407.75
2023-05-15T17:03:05.505Z,100407.47
2023-05-15T17:05:33.951Z,100404.84
2023-05-15T17:08:03.540Z,100416.44
2023-05-15T17:10:32.112Z,100416.97
2023-05-15T17:13:00.347Z,100418.66
2023-05-15T17:15:28.770Z,100419.38
2023-05-15T17:17:57.193Z,100420.81
2023-05-15T17:20:25.516Z,100421.34
2023-05-15T17:22:53.845Z,100426.44
2023-05-15T17:25:23.732Z,100423.88
2023-05-15T17:27:52.178Z,100430.72
2023-05-15T17:30:20.861Z,100429.31
2023-05-15T17:32:49.398Z,100433.06
2023-05-15T17:35:18.842Z,100430.66
2023-05-15T17:37:47.150Z,100439.22
2023-05-15T17:40:15.338Z,100432.22
2023-05-15T17:42:45.034Z,100435.78
2023-05-15T17:45:13.289Z,100446.66
2023-05-15T17:47:41.822Z,100444.88
2023-05-15T17:50:12.322Z,100448.97
2023-05-15T17:52:40.583Z,100451.22
2023-05-15T17:55:09.477Z,100453.25
2023-05-15T17:57:37.939Z,100455.69
2023-05-15T18:00:09.478Z,100450.91
2023-05-15T18:02:37.885Z,100455.53
2023-05-15T18:05:06.619Z,100474.63
2023-05-15T18:07:35.004Z,100466.44
2023-05-15T18:10:03.308Z,100477.31
2023-05-15T18:12:31.946Z,100473.84
2023-05-15T18:15:00.206Z,100480.44
2023-05-15T18:17:29.982Z,100479.88
2023-05-15T18:19:58.457Z,100492.84
2023-05-15T18:22:26.715Z,100492.22
2023-05-15T18:24:55.679Z,100490.59
2023-05-15T18:27:23.967Z,100498.97
2023-05-15T18:29:52.854Z,100498.69
2023-05-15T18:32:21.494Z,100509.63
2023-05-15T18:34:51.647Z,100512.59
2023-05-15T18:37:20.179Z,100517.16
2023-05-15T18:39:48.457Z,100513.59
2023-05-15T18:42:17.371Z,100512.97
2023-05-15T18:44:47.666Z,100523.72
2023-05-15T18:47:16.091Z,100524.53
2023-05-15T18:49:44.639Z,100532.63
2023-05-15T18:52:14.542Z,100534.47
2023-05-15T18:54:42.949Z,100541.16
2023-05-15T18:57:11.577Z,100538.88
2023-05-15T18:59:39.933Z,100547.63
2023-05-15T19:02:09.296Z,100548.03
2023-05-15T19:04:37.794Z,100540.28
2023-05-15T19:07:06.354Z,100536.25
2023-05-15T19:09:36.369Z,100546.84
2023-05-15T19:12:05.321Z,100548.84
2023-05-15T19:14:33.724Z,100550.34
2023-05-15T19:17:02.183Z,100556.66
2023-05-15T19:19:31.281Z,100568.16
2023-05-15T19:21:59.637Z,100564.75
2023-05-15T19:24:27.869Z,100568.00
2023-05-15T19:26:57.665Z,100564.75
2023-05-15T19:29:25.929Z,100577.41
2023-05-15T19:31:54.161Z,100575.28
2023-05-15T19:34:22.461Z,100577.06
2023-05-15T19:36:50.695Z,100576.59
2023-05-15T19:39:19.255Z,100583.06
2023-05-15T19:41:47.526Z,100587.13
2023-05-15T19:44:17.145Z,100582.56
2023-05-15T19:46:46.645Z,100591.31
2023-05-15T19:49:15.286Z,100596.03
2023-05-15T19:51:43.857Z,100596.34
2023-05-15T19:54:12.736Z,100595.84
2023-05-15T19:56:41.224Z,100601.81
2023-05-15T19:59:09.559Z,100609.63
2023-05-15T20:01:39.427Z,100610.41
2023-05-15T20:04:08.273Z,100609.28
2023-05-15T20:06:36.835Z,100602.16
2023-05-15T20:09:05.751Z,100606.38
2023-05-15T20:11:34.212Z,100616.88
2023-05-15T20:14:15.117Z,100615.41
2023-05-15T20:16:44.810Z,100620.91
2023-05-15T20:19:13.228Z,100618.16
2023-05-15T20:21:41.537Z,100620.59
2023-05-15T20:24:10.249Z,100622.53
2023-05-15T20:26:38.647Z,100627.06
2023-05-15T20:29:07.001Z,100631.78
2023-05-15T20:31:35.442Z,100627.72
2023-05-15T20:34:06.497Z,100632.41
2023-05-15T20:36:35.539Z,100641.78
2023-05-15T20:39:07.083Z,100633.38
2023-05-15T20:41:37.094Z,100636.63
2023-05-15T20:44:05.419Z,100640.00
2023-05-15T20:46:33.945Z,100647.28
2023-05-15T20:49:02.840Z,100632.25
2023-05-15T20:51:32.999Z,100641.94
2023-05-15T20:54:01.335Z,100649.56
2023-05-15T20:56:29.636Z,100646.16
2023-05-15T20:58:59.798Z,100637.09
2023-05-15T21:01:28.459Z,100637.59
2023-05-15T21:03:56.849Z,100634.03
2023-05-15T21:06:25.407Z,100627.84
2023-05-15T21:08:55.106Z,100632.22
2023-05-15T21:11:23.690Z,100633.84
2023-05-15T21:13:51.902Z,100633.06
2023-05-15T21:16:20.448Z,100635.00
2023-05-15T21:18:49.068Z,100630.94
2023-05-15T21:21:17.832Z,100639.53
2023-05-15T21:23:46.334Z,100634.81
2023-05-15T21:26:17.438Z,100641.00
2023-05-15T21:28:45.708Z,100638.38
2023-05-15T21:31:14.457Z,100641.94
2023-05-15T21:33:43.044Z,100638.22
2023-05-15T21:36:11.832Z,100643.72
2023-05-15T21:38:40.436Z,100637.88
2023-05-15T21:41:09.296Z,100641.59
2023-05-15T21:43:39.150Z,100639.00
2023-05-15T21:46:08.263Z,100641.25
2023-05-15T21:48:37.788Z,100633.50
2023-05-15T21:51:07.562Z,100645.63
2023-05-15T21:53:41.255Z,100642.88
2023-05-15T21:56:11.093Z,100643.69
2023-05-15T21:58:41.288Z,100645.13
2023-05-15T22:01:10.735Z,100640.94
2023-05-15T22:03:42.140Z,100648.81
2023-05-15T22:06:11.555Z,100648.97
2023-05-15T22:08:40.350Z,100652.72
2023-05-15T22:11:09.045Z,100660.09
2023-05-15T22:13:37.623Z,100659.13
2023-05-15T22:16:08.483Z,100656.03
2023-05-15T22:18:37.877Z,100655.53
2023-05-15T22:21:06.360Z,100654.06
2023-05-15T22:23:34.581Z,100656.81
2023-05-15T22:26:03.505Z,100662.28
2023-05-15T22:28:32.274Z,100665.31
2023-05-15T22:31:02.109Z,100670.69
2023-05-15T22:33:31.697Z,100666.25
2023-05-15T22:36:00.023Z,100673.94
2023-05-15T22:38:28.500Z,100669.53
2023-05-15T22:40:56.805Z,100680.38
2023-05-15T22:43:25.358Z,100682.22
2023-05-15T22:45:53.654Z,100686.03
2023-05-15T22:48:23.095Z,100681.19
2023-05-15T22:50:53.811Z,100684.97
2023-05-15T22:53:22.230Z,100684.78
2023-05-15T22:55:50.460Z,100685.19
2023-05-15T22:58:18.684Z,100689.25
2023-05-15T23:00:47.070Z,100693.72
2023-05-15T23:03:15.453Z,100700.84
2023-05-15T23:05:43.896Z,100702.44
2023-05-15T23:08:13.559Z,100711.78
2023-05-15T23:10:41.790Z,100713.78
2023-05-15T23:13:10.009Z,100719.28
2023-05-15T23:15:38.298Z,100717.81
2023-05-15T23:18:06.686Z,100714.19
2023-05-15T23:20:35.027Z,100708.88
2023-05-15T23:23:03.219Z,100716.56
2023-05-15T23:25:32.844Z,100716.06
2023-05-15T23:28:01.091Z,100719.47
2023-05-15T23:30:29.446Z,100720.97
2023-05-15T23:32:58.004Z,100719.13
2023-05-15T23:35:26.232Z,100722.03
2023-05-15T23:37:54.436Z,100729.41
2023-05-15T23:40:22.701Z,100725.94
2023-05-15T23:42:52.352Z,100730.31
2023-05-15T23:45:20.823Z,100730.59
2023-05-15T23:47:49.031Z,100727.59
2023-05-15T23:50:18.072Z,100745.94
2023-05-15T23:52:46.337Z,100739.66
2023-05-15T23:55:14.785Z,100743.25
2023-05-15T23:57:43.854Z,100749.09
